Time;durP1;ratioP1;P1;durP2;ratioP2;P2;SDS_P1;SDS_P2;PMS_P1;PMS_P2;Temp;Humidity;BMP_temperature;BMP_pressure;BME280_temperature;BME280_humidity;BME280_pressure;Samples;Min_cycle;Max_cycle;Signal;HPM_P1;HPM_P2
2023/11/09 00:01:09;;;;;;;4.17;2.60;;;6.70;99.90;;;;;;5091446;28;20548;-61
2023/11/09 00:03:36;;;;;;;7.93;5.87;;;6.60;99.90;;;;;;5091001;28;20204;-61
2023/11/09 00:06:03;;;;;;;8.57;6.17;;;6.60;99.90;;;;;;5091203;28;20219;-65
2023/11/09 00:08:30;;;;;;;7.50;5.80;;;6.60;99.90;;;;;;5090720;28;20705;-62
2023/11/09 00:10:59;;;;;;;5.67;4.23;;;6.50;99.90;;;;;;5091269;28;20266;-61
2023/11/09 00:13:26;;;;;;;7.00;5.53;;;6.50;99.90;;;;;;5091222;28;20247;-61
2023/11/09 00:15:55;;;;;;;5.70;4.07;;;6.50;99.90;;;;;;5091208;28;20209;-60
2023/11/09 00:18:22;;;;;;;4.80;2.70;;;6.40;99.90;;;;;;5090708;28;21057;-62
2023/11/09 00:20:49;;;;;;;9.00;5.40;;;6.40;99.90;;;;;;5091426;28;20220;-63
2023/11/09 00:23:16;;;;;;;4.10;3.33;;;6.30;99.90;;;;;;5090945;28;20215;-63
2023/11/09 00:25:43;;;;;;;5.77;3.83;;;6.30;99.90;;;;;;5091104;28;20688;-63
2023/11/09 00:28:11;;;;;;;9.90;5.03;;;6.30;99.90;;;;;;5091101;28;20210;-62
2023/11/09 00:30:38;;;;;;;5.27;4.40;;;6.20;99.90;;;;;;5082811;28;20196;-61
2023/11/09 00:33:04;;;;;;;4.30;3.53;;;6.10;99.90;;;;;;5091017;28;20604;-63
2023/11/09 00:35:32;;;;;;;7.60;6.30;;;6.10;99.90;;;;;;5091241;28;20215;-62
2023/11/09 00:38:00;;;;;;;4.80;3.20;;;6.10;99.90;;;;;;5091214;28;20204;-62
2023/11/09 00:40:26;;;;;;;5.67;3.20;;;6.00;99.90;;;;;;5090985;28;20258;-63
2023/11/09 00:42:53;;;;;;;4.20;2.90;;;6.00;99.90;;;;;;5090602;28;20577;-62
2023/11/09 00:45:21;;;;;;;3.43;3.00;;;5.90;99.90;;;;;;5093795;28;20209;-62
2023/11/09 00:47:49;;;;;;;3.70;2.77;;;5.90;99.90;;;;;;5094669;28;20212;-62
2023/11/09 00:50:16;;;;;;;5.87;2.80;;;5.90;99.90;;;;;;5094356;28;20768;-62
2023/11/09 00:52:43;;;;;;;4.50;2.90;;;5.90;99.90;;;;;;5094201;28;20220;-62
2023/11/09 00:55:10;;;;;;;3.50;2.50;;;5.90;99.90;;;;;;5094498;28;20626;-62
2023/11/09 00:57:37;;;;;;;4.20;3.10;;;5.90;99.90;;;;;;5094331;28;20218;-63
2023/11/09 01:00:04;;;;;;;4.87;2.13;;;5.90;99.90;;;;;;5094208;28;20224;-62
2023/11/09 01:02:37;;;;;;;3.67;2.67;;;5.90;99.90;;;;;;5094410;28;20203;-62
2023/11/09 01:05:04;;;;;;;5.23;2.67;;;5.90;99.90;;;;;;5094808;28;20215;-62
2023/11/09 01:07:31;;;;;;;2.63;2.10;;;5.80;99.90;;;;;;5094170;28;20204;-62
2023/11/09 01:09:57;;;;;;;3.30;2.20;;;5.90;99.90;;;;;;5094381;28;20228;-62
2023/11/09 01:12:25;;;;;;;3.13;2.20;;;6.00;99.90;;;;;;5094234;28;20200;-63
2023/11/09 01:14:53;;;;;;;3.70;2.30;;;6.00;99.90;;;;;;5094589;28;20204;-61
2023/11/09 01:17:20;;;;;;;2.40;2.17;;;6.00;99.90;;;;;;5094399;28;20215;-62
2023/11/09 01:19:48;;;;;;;3.67;1.97;;;6.00;99.90;;;;;;5094109;28;20227;-63
2023/11/09 01:22:14;;;;;;;7.10;2.00;;;6.00;99.90;;;;;;5093863;28;20204;-61
2023/11/09 01:24:41;;;;;;;2.53;1.97;;;6.00;99.90;;;;;;5093942;28;20567;-62
2023/11/09 01:27:08;;;;;;;3.23;2.17;;;6.00;99.90;;;;;;5094767;28;20273;-62
2023/11/09 01:29:34;;;;;;;5.53;2.30;;;6.00;99.90;;;;;;5094374;28;20232;-62
2023/11/09 01:32:01;;;;;;;5.73;2.10;;;6.00;99.90;;;;;;5096425;28;20204;-62
2023/11/09 01:34:28;;;;;;;4.53;2.20;;;6.00;99.90;;;;;;5095465;28;20603;-62
2023/11/09 01:36:57;;;;;;;2.53;2.10;;;6.10;99.90;;;;;;5095508;28;20240;-63
2023/11/09 01:39:24;;;;;;;3.17;2.10;;;6.10;99.90;;;;;;5094981;28;20224;-62
2023/11/09 01:41:51;;;;;;;3.03;2.30;;;6.10;99.90;;;;;;5094993;28;20580;-62
2023/11/09 01:44:17;;;;;;;2.63;1.97;;;6.10;99.90;;;;;;5094558;28;20285;-62
2023/11/09 01:46:46;;;;;;;2.67;2.00;;;6.20;99.90;;;;;;5094354;28;20204;-63
2023/11/09 01:49:15;;;;;;;4.17;2.00;;;6.20;99.90;;;;;;5094984;28;20819;-61
2023/11/09 01:51:44;;;;;;;3.37;2.40;;;6.10;99.90;;;;;;5080002;28;20204;-62
2023/11/09 01:54:13;;;;;;;5.40;2.67;;;6.10;99.90;;;;;;5096463;28;20252;-62
2023/11/09 01:56:40;;;;;;;5.33;3.10;;;6.10;99.90;;;;;;5094221;28;20200;-62
2023/11/09 01:59:08;;;;;;;4.33;2.67;;;6.10;99.90;;;;;;5095321;28;20228;-62
2023/11/09 02:01:37;;;;;;;4.23;2.70;;;6.00;99.90;;;;;;5095185;28;20204;-62
2023/11/09 02:04:04;;;;;;;4.83;2.60;;;6.00;99.90;;;;;;5096061;28;20200;-62
2023/11/09 02:06:31;;;;;;;5.73;3.07;;;6.10;99.90;;;;;;5096584;28;20690;-62
2023/11/09 02:08:58;;;;;;;5.27;2.97;;;6.10;99.90;;;;;;5097301;28;20228;-61
2023/11/09 02:11:27;;;;;;;3.27;2.13;;;6.10;99.90;;;;;;5095071;28;20234;-62
2023/11/09 02:13:53;;;;;;;3.17;1.90;;;6.10;99.90;;;;;;5092808;28;20705;-61
2023/11/09 02:16:20;;;;;;;3.13;1.83;;;6.30;99.90;;;;;;5092995;28;20204;-62
2023/11/09 02:18:47;;;;;;;4.07;1.90;;;6.30;99.90;;;;;;5092624;28;20242;-62
2023/11/09 02:21:15;;;;;;;3.10;1.60;;;6.40;99.90;;;;;;5092582;28;20204;-61
2023/11/09 02:23:44;;;;;;;3.87;1.97;;;6.50;99.90;;;;;;5092527;28;20235;-62
2023/11/09 02:26:13;;;;;;;4.40;2.63;;;6.60;99.90;;;;;;5092670;28;20207;-62
2023/11/09 02:28:39;;;;;;;2.80;1.90;;;6.60;99.90;;;;;;5092632;28;20220;-61
2023/11/09 02:31:06;;;;;;;3.60;2.03;;;6.70;99.90;;;;;;5092484;28;20208;-61
2023/11/09 02:33:33;;;;;;;2.80;1.83;;;6.70;99.90;;;;;;5092055;28;20224;-63
2023/11/09 02:36:00;;;;;;;4.83;2.30;;;6.70;99.90;;;;;;5092713;28;20209;-63
2023/11/09 02:38:27;;;;;;;2.43;1.67;;;6.70;99.90;;;;;;5092619;28;20231;-62
2023/11/09 02:40:53;;;;;;;3.43;1.73;;;6.70;99.90;;;;;;5092513;28;20204;-62
2023/11/09 02:43:21;;;;;;;2.13;1.70;;;6.80;99.90;;;;;;5091746;28;20200;-61
2023/11/09 02:45:48;;;;;;;3.70;1.97;;;6.90;99.90;;;;;;5092186;28;20249;-62
2023/11/09 02:48:15;;;;;;;1.80;1.50;;;6.80;99.90;;;;;;5092666;28;20293;-62
2023/11/09 02:50:41;;;;;;;2.53;1.90;;;6.90;99.90;;;;;;5092059;28;20208;-62
2023/11/09 02:53:08;;;;;;;2.77;1.80;;;6.80;99.90;;;;;;5092230;28;20224;-62
2023/11/09 02:55:35;;;;;;;2.20;1.80;;;6.80;99.90;;;;;;5092328;28;20204;-62
2023/11/09 02:58:03;;;;;;;2.13;1.80;;;6.70;99.90;;;;;;5092021;28;20278;-62
2023/11/09 03:00:31;;;;;;;4.83;1.90;;;6.70;99.90;;;;;;5091918;28;20227;-63
2023/11/09 03:02:58;;;;;;;2.73;1.70;;;6.70;99.90;;;;;;5091879;28;20265;-63
2023/11/09 03:05:27;;;;;;;1.90;1.60;;;6.70;99.90;;;;;;5092125;28;20211;-63
2023/11/09 03:07:55;;;;;;;3.73;1.80;;;6.60;99.90;;;;;;5091708;28;20269;-62
2023/11/09 03:10:21;;;;;;;2.60;1.77;;;6.60;99.90;;;;;;5091937;28;20259;-62
2023/11/09 03:12:48;;;;;;;1.50;1.30;;;6.60;99.90;;;;;;5091716;28;20200;-63
2023/11/09 03:15:16;;;;;;;4.23;1.73;;;6.50;99.90;;;;;;5091824;28;20228;-61
2023/11/09 03:17:44;;;;;;;2.47;1.60;;;6.60;99.90;;;;;;5091600;28;20272;-62
2023/11/09 03:20:12;;;;;;;1.87;1.30;;;6.60;99.90;;;;;;5091499;28;20235;-61
2023/11/09 03:22:40;;;;;;;3.70;1.60;;;6.50;99.90;;;;;;5091676;28;20204;-62
2023/11/09 03:25:08;;;;;;;1.70;1.60;;;6.50;99.90;;;;;;5091727;28;20209;-62
2023/11/09 03:27:35;;;;;;;2.47;1.57;;;6.60;99.90;;;;;;5091762;28;20211;-63
2023/11/09 03:30:02;;;;;;;5.37;1.50;;;6.60;99.90;;;;;;5091492;28;20224;-62
2023/11/09 03:32:28;;;;;;;1.90;1.40;;;6.70;99.90;;;;;;5091608;28;20208;-63
2023/11/09 03:34:56;;;;;;;2.17;1.50;;;6.70;99.90;;;;;;5090998;28;20220;-62
2023/11/09 03:37:23;;;;;;;2.43;1.70;;;6.70;99.90;;;;;;5091239;28;20631;-62
2023/11/09 03:39:50;;;;;;;2.30;1.70;;;6.70;99.90;;;;;;5091396;28;20228;-61
2023/11/09 03:42:17;;;;;;;3.33;1.87;;;6.70;99.90;;;;;;5091361;28;20284;-63
2023/11/09 03:44:44;;;;;;;2.70;1.90;;;6.80;99.90;;;;;;5091150;28;20207;-62
2023/11/09 03:47:11;;;;;;;2.67;1.60;;;6.80;99.90;;;;;;5091272;28;20749;-63
2023/11/09 03:49:41;;;;;;;2.23;1.70;;;6.70;99.90;;;;;;5091409;28;20246;-62
2023/11/09 03:52:10;;;;;;;2.20;1.50;;;6.70;99.90;;;;;;5091824;28;20289;-61
2023/11/09 03:54:36;;;;;;;2.27;1.40;;;6.70;99.90;;;;;;5091886;28;20223;-63
2023/11/09 03:57:04;;;;;;;2.40;1.90;;;6.60;99.90;;;;;;5093339;28;20211;-63
2023/11/09 03:59:30;;;;;;;1.57;1.47;;;6.50;99.90;;;;;;5093574;28;20224;-62
2023/11/09 04:01:57;;;;;;;3.10;1.70;;;6.50;99.90;;;;;;5094957;28;20681;-63
2023/11/09 04:04:24;;;;;;;2.77;1.93;;;6.40;99.90;;;;;;5094702;28;20614;-63
2023/11/09 04:06:50;;;;;;;2.37;1.60;;;6.30;99.90;;;;;;5093463;28;20231;-62
2023/11/09 04:09:18;;;;;;;1.90;1.43;;;6.20;99.90;;;;;;5092638;28;20250;-62
2023/11/09 04:11:45;;;;;;;3.80;1.53;;;6.10;99.90;;;;;;5092342;28;20246;-62
2023/11/09 04:14:12;;;;;;;5.23;2.13;;;6.10;99.90;;;;;;5092102;28;20219;-62
2023/11/09 04:16:39;;;;;;;1.80;1.40;;;6.10;99.90;;;;;;5092425;28;20235;-62
2023/11/09 04:19:07;;;;;;;1.90;1.50;;;6.00;99.90;;;;;;5105510;22;20585;-58
2023/11/09 04:21:34;;;;;;;2.10;1.67;;;6.00;99.90;;;;;;5064242;28;20214;-58
2023/11/09 04:24:01;;;;;;;2.10;1.30;;;5.90;99.90;;;;;;5065908;28;20201;-58
2023/11/09 04:26:32;;;;;;;1.93;1.53;;;5.80;99.90;;;;;;5064886;28;20209;-58
2023/11/09 04:28:59;;;;;;;2.67;1.53;;;5.80;99.90;;;;;;5067567;28;20221;-58
2023/11/09 04:31:26;;;;;;;6.93;2.30;;;5.80;99.90;;;;;;5073953;28;20212;-58
2023/11/09 04:33:54;;;;;;;2.20;1.53;;;5.80;99.90;;;;;;5074006;28;20220;-57
2023/11/09 04:36:23;;;;;;;2.70;1.37;;;5.80;99.90;;;;;;5074169;28;20270;-58
2023/11/09 04:38:52;;;;;;;3.10;1.47;;;5.70;99.90;;;;;;5058213;28;20727;-57
2023/11/09 04:41:18;;;;;;;1.53;1.40;;;5.70;99.90;;;;;;5074006;28;20582;-58
2023/11/09 04:43:46;;;;;;;2.37;1.53;;;5.60;99.90;;;;;;5073836;28;20219;-59
2023/11/09 04:46:17;;;;;;;2.17;1.53;;;5.60;99.90;;;;;;5074133;28;20215;-58
2023/11/09 04:48:47;;;;;;;1.27;1.17;;;5.60;99.90;;;;;;5073709;28;20739;-59
2023/11/09 04:51:20;;;;;;;3.20;1.53;;;5.60;99.90;;;;;;5074059;28;20584;-58
2023/11/09 04:53:51;;;;;;;3.20;1.87;;;5.60;99.90;;;;;;5057322;28;20224;-58
2023/11/09 04:56:38;;;;;;;2.23;1.57;;;5.70;99.90;;;;;;5073760;28;20240;-58
2023/11/09 05:07:16;;;;;;;5.37;1.87;;;6.20;99.90;;;;;;5073868;28;20732;-60
2023/11/09 05:09:46;;;;;;;1.97;1.50;;;6.30;99.90;;;;;;5073413;28;20324;-59
2023/11/09 05:12:13;;;;;;;3.13;1.47;;;6.40;99.90;;;;;;5073821;28;20216;-60
2023/11/09 05:14:41;;;;;;;2.60;1.50;;;6.40;99.90;;;;;;5073006;28;20225;-59
2023/11/09 05:17:08;;;;;;;3.17;1.77;;;6.40;99.90;;;;;;5073358;28;20211;-59
2023/11/09 05:19:35;;;;;;;2.57;1.50;;;6.50;99.90;;;;;;5073138;28;20320;-58
2023/11/09 05:22:02;;;;;;;1.67;1.27;;;6.50;99.90;;;;;;5073314;28;20232;-58
2023/11/09 05:24:29;;;;;;;2.87;1.77;;;6.50;99.90;;;;;;5073001;28;20202;-59
2023/11/09 05:26:56;;;;;;;3.17;1.53;;;6.60;99.90;;;;;;5073466;28;20205;-57
2023/11/09 05:29:23;;;;;;;2.37;1.47;;;6.60;99.90;;;;;;5072889;28;20228;-59
2023/11/09 05:31:51;;;;;;;2.10;1.63;;;6.60;99.90;;;;;;5065322;28;20216;-58
2023/11/09 05:34:18;;;;;;;2.00;1.47;;;6.70;99.90;;;;;;5072932;28;20580;-58
2023/11/09 05:36:45;;;;;;;3.20;1.10;;;6.70;99.90;;;;;;5073225;28;20296;-59
2023/11/09 05:39:13;;;;;;;2.97;1.50;;;6.70;99.90;;;;;;5072686;28;20243;-58
2023/11/09 05:41:40;;;;;;;3.27;1.60;;;6.70;99.90;;;;;;5072960;28;20581;-59
2023/11/09 05:44:07;;;;;;;8.90;2.10;;;6.70;99.90;;;;;;5072859;28;20197;-58
2023/11/09 05:46:36;;;;;;;2.60;1.80;;;6.80;99.90;;;;;;5072836;28;20266;-58
2023/11/09 05:49:04;;;;;;;2.47;1.57;;;6.90;99.90;;;;;;5072767;28;20278;-58
2023/11/09 05:51:31;;;;;;;7.20;2.23;;;7.00;99.90;;;;;;5072880;28;20288;-58
2023/11/09 05:53:59;;;;;;;2.60;1.63;;;7.00;99.90;;;;;;5072153;28;20225;-58
2023/11/09 05:56:26;;;;;;;3.27;1.77;;;7.10;99.90;;;;;;5072667;28;20235;-58
2023/11/09 05:58:54;;;;;;;2.27;1.80;;;7.10;99.90;;;;;;5072938;28;20225;-59
2023/11/09 06:01:20;;;;;;;2.63;2.13;;;7.20;99.90;;;;;;5072454;28;20205;-59
2023/11/09 06:03:47;;;;;;;5.13;2.30;;;7.30;99.90;;;;;;5072412;28;20653;-58
2023/11/09 06:06:16;;;;;;;2.57;1.80;;;7.40;99.90;;;;;;5072272;28;20205;-58
2023/11/09 06:08:43;;;;;;;5.33;1.90;;;7.50;99.90;;;;;;5072253;28;20229;-60
2023/11/09 06:11:10;;;;;;;3.67;2.03;;;7.50;99.90;;;;;;5072472;28;20201;-58
2023/11/09 06:13:37;;;;;;;1.73;1.53;;;7.40;99.90;;;;;;5071958;28;20228;-58
2023/11/09 06:16:05;;;;;;;6.50;1.73;;;7.60;99.90;;;;;;5071937;28;20228;-59
2023/11/09 06:18:32;;;;;;;5.17;2.27;;;7.60;99.90;;;;;;5071837;28;20495;-60
2023/11/09 06:21:00;;;;;;;2.10;1.70;;;7.70;99.90;;;;;;5071960;28;20215;-58
2023/11/09 06:23:29;;;;;;;6.10;1.90;;;7.80;99.90;;;;;;5071459;28;20204;-59
2023/11/09 06:25:56;;;;;;;3.37;2.60;;;7.90;99.90;;;;;;5072072;28;20228;-58
2023/11/09 06:28:23;;;;;;;7.33;2.40;;;7.90;99.90;;;;;;5071662;28;20678;-59
2023/11/09 06:30:50;;;;;;;6.43;2.10;;;7.90;99.90;;;;;;5071964;28;20629;-58
2023/11/09 06:33:17;;;;;;;5.17;2.20;;;8.00;99.90;;;;;;5071661;28;20215;-58
2023/11/09 06:35:46;;;;;;;3.20;1.93;;;8.00;99.90;;;;;;5071782;28;20244;-59
2023/11/09 06:38:13;;;;;;;4.60;3.37;;;8.10;99.90;;;;;;5071976;28;20209;-58
2023/11/09 06:40:41;;;;;;;7.07;4.50;;;8.10;99.90;;;;;;5071546;28;20732;-58
2023/11/09 06:43:09;;;;;;;16.87;9.73;;;8.10;99.90;;;;;;5070947;28;20208;-59
2023/11/09 06:45:36;;;;;;;10.90;5.40;;;8.20;99.90;;;;;;5071331;28;20246;-62
2023/11/09 06:48:03;;;;;;;7.57;4.30;;;8.20;99.90;;;;;;5071054;28;20240;-58
2023/11/09 06:50:30;;;;;;;6.23;3.37;;;8.20;99.90;;;;;;5071543;28;20232;-58
2023/11/09 06:52:57;;;;;;;11.63;7.97;;;8.20;99.90;;;;;;5071252;28;20766;-57
2023/11/09 06:55:24;;;;;;;6.73;3.60;;;8.20;99.90;;;;;;5071507;28;20228;-58
2023/11/09 06:57:53;;;;;;;5.17;3.00;;;8.30;99.90;;;;;;5055033;28;20205;-58
2023/11/09 07:00:22;;;;;;;6.00;3.20;;;8.30;99.90;;;;;;5071414;28;20229;-57
2023/11/09 07:02:50;;;;;;;5.07;2.60;;;8.50;99.90;;;;;;5070832;28;20667;-58
2023/11/09 07:05:17;;;;;;;4.03;1.87;;;8.60;99.90;;;;;;5071521;28;20291;-57
2023/11/09 07:07:43;;;;;;;5.13;1.60;;;8.70;99.90;;;;;;5071138;28;20209;-57
2023/11/09 07:10:15;;;;;;;7.60;2.60;;;8.80;99.90;;;;;;5071162;28;20710;-57
2023/11/09 07:12:42;;;;;;;2.93;1.60;;;9.00;99.90;;;;;;5070698;28;20300;-57
2023/11/09 07:15:11;;;;;;;2.33;1.27;;;9.10;99.90;;;;;;5071082;28;20228;-57
2023/11/09 07:17:37;;;;;;;3.13;1.60;;;9.20;99.90;;;;;;5070794;28;20268;-58
2023/11/09 07:20:05;;;;;;;2.10;1.27;;;9.40;99.90;;;;;;5070898;28;20277;-57
2023/11/09 07:22:33;;;;;;;1.80;1.30;;;9.60;99.90;;;;;;5070957;28;20685;-58
2023/11/09 07:25:00;;;;;;;1.80;1.30;;;9.90;99.90;;;;;;5071397;28;20200;-58
2023/11/09 07:27:27;;;;;;;2.40;1.60;;;10.10;99.90;;;;;;5070775;28;20208;-58
2023/11/09 07:29:54;;;;;;;1.13;0.97;;;10.40;99.90;;;;;;5070577;28;20270;-58
2023/11/09 07:32:22;;;;;;;2.33;1.00;;;10.70;99.90;;;;;;5070976;28;20292;-57
2023/11/09 07:34:49;;;;;;;2.57;1.30;;;10.90;99.90;;;;;;5070791;28;20251;-58
2023/11/09 07:37:16;;;;;;;2.70;1.83;;;11.10;99.90;;;;;;5070834;28;20224;-59
2023/11/09 07:39:43;;;;;;;1.53;1.00;;;11.10;99.90;;;;;;5070767;28;20603;-59
2023/11/09 07:42:10;;;;;;;4.43;0.93;;;11.20;99.90;;;;;;5070764;28;20236;-58
2023/11/09 07:44:36;;;;;;;3.47;1.20;;;11.30;99.90;;;;;;5070525;28;20197;-59
2023/11/09 07:47:04;;;;;;;1.57;1.20;;;11.30;99.90;;;;;;5071066;28;20209;-58
2023/11/09 07:49:32;;;;;;;2.33;1.20;;;11.30;99.90;;;;;;5070528;28;20225;-58
2023/11/09 07:51:59;;;;;;;2.13;1.03;;;11.50;99.90;;;;;;5070692;28;20204;-59
2023/11/09 07:54:26;;;;;;;2.80;1.30;;;11.50;99.90;;;;;;5073784;28;20232;-59
2023/11/09 07:56:55;;;;;;;2.17;1.00;;;11.60;99.90;;;;;;5058746;28;20207;-58
2023/11/09 07:59:23;;;;;;;2.40;1.50;;;11.60;99.90;;;;;;5074980;28;20575;-58
2023/11/09 08:01:49;;;;;;;1.80;1.40;;;11.70;99.90;;;;;;5074637;28;20236;-58
2023/11/09 08:04:16;;;;;;;2.27;1.50;;;11.80;99.90;;;;;;5074660;28;20205;-58
2023/11/09 08:06:45;;;;;;;5.00;2.20;;;11.80;99.90;;;;;;5074719;28;20567;-58
2023/11/09 08:09:15;;;;;;;2.57;1.10;;;11.90;99.90;;;;;;5074449;28;20732;-58
2023/11/09 08:11:42;;;;;;;2.10;1.20;;;12.00;99.90;;;;;;5074510;28;20689;-59
2023/11/09 08:14:09;;;;;;;3.07;1.03;;;12.00;99.90;;;;;;5074795;28;20240;-57
2023/11/09 08:16:36;;;;;;;1.57;0.90;;;12.00;99.90;;;;;;5074346;28;20611;-58
2023/11/09 08:19:03;;;;;;;4.87;1.37;;;12.10;99.90;;;;;;5074238;28;20337;-58
2023/11/09 08:21:30;;;;;;;2.17;1.40;;;12.30;99.90;;;;;;5074691;28;20207;-57
2023/11/09 08:23:58;;;;;;;2.03;1.00;;;12.30;99.90;;;;;;5074260;28;20212;-58
2023/11/09 08:26:25;;;;;;;1.53;1.20;;;12.30;99.90;;;;;;5074670;28;20197;-58
2023/11/09 08:28:52;;;;;;;2.43;1.57;;;12.40;99.90;;;;;;5074008;28;20247;-58
2023/11/09 08:31:19;;;;;;;1.90;1.10;;;12.40;99.90;;;;;;5074098;28;20288;-58
2023/11/09 08:33:46;;;;;;;2.00;1.27;;;12.50;99.90;;;;;;5073875;28;20235;-58
2023/11/09 08:36:13;;;;;;;1.73;1.20;;;12.50;99.90;;;;;;5074166;28;20245;-58
2023/11/09 08:38:40;;;;;;;2.40;1.20;;;12.50;99.90;;;;;;5073833;28;20201;-58
2023/11/09 08:41:08;;;;;;;3.67;1.40;;;12.50;99.90;;;;;;5073931;28;20667;-58
2023/11/09 08:43:34;;;;;;;1.90;1.20;;;12.60;99.90;;;;;;5073741;28;20201;-58
2023/11/09 08:46:02;;;;;;;1.57;1.07;;;12.50;99.90;;;;;;5073957;28;20200;-58
2023/11/09 08:48:30;;;;;;;1.40;1.13;;;12.60;99.90;;;;;;5073665;28;20275;-59
2023/11/09 08:51:00;;;;;;;1.70;1.10;;;12.60;99.90;;;;;;5073803;28;20201;-58
2023/11/09 08:53:29;;;;;;;2.60;1.40;;;12.70;99.90;;;;;;5073644;28;20205;-58
2023/11/09 08:55:56;;;;;;;3.33;1.40;;;12.90;99.90;;;;;;5057676;28;20244;-58
2023/11/09 08:58:24;;;;;;;3.93;1.30;;;12.90;99.90;;;;;;5073591;28;20224;-58
2023/11/09 09:00:52;;;;;;;2.53;1.40;;;13.00;99.90;;;;;;5073605;28;20478;-57
2023/11/09 09:03:18;;;;;;;4.83;3.90;;;13.10;99.90;;;;;;5073441;28;20265;-58
2023/11/09 09:05:45;;;;;;;2.30;1.73;;;13.10;99.90;;;;;;5072434;28;20220;-58
2023/11/09 09:08:12;;;;;;;2.63;1.73;;;13.20;99.90;;;;;;5073595;28;20253;-58
2023/11/09 09:10:39;;;;;;;3.67;2.07;;;13.10;99.90;;;;;;5073598;28;20239;-61
2023/11/09 09:13:07;;;;;;;5.57;2.47;;;13.00;99.90;;;;;;5073306;28;20209;-59
2023/11/09 09:15:35;;;;;;;2.13;1.30;;;13.00;99.90;;;;;;5073135;28;20618;-62
2023/11/09 09:18:02;;;;;;;2.40;1.60;;;13.00;99.90;;;;;;5073284;28;20209;-55
2023/11/09 09:20:29;;;;;;;3.20;1.37;;;13.10;99.90;;;;;;5073083;28;20314;-56
2023/11/09 09:22:59;;;;;;;3.00;1.13;;;13.10;99.90;;;;;;5056700;28;20643;-55
2023/11/09 09:25:26;;;;;;;2.97;1.67;;;13.10;99.90;;;;;;5072690;28;20247;-55
2023/11/09 09:27:53;;;;;;;2.20;1.30;;;13.20;99.90;;;;;;5072768;28;20642;-55
2023/11/09 09:30:21;;;;;;;1.53;1.20;;;13.30;99.90;;;;;;5072953;28;20220;-55
2023/11/09 09:32:51;;;;;;;2.33;1.30;;;13.40;99.90;;;;;;5073203;28;20228;-57
2023/11/09 09:35:20;;;;;;;1.80;1.30;;;13.40;99.90;;;;;;5073497;28;20303;-57
2023/11/09 09:37:48;;;;;;;2.70;1.40;;;13.40;99.90;;;;;;5072991;28;20205;-56
2023/11/09 09:40:16;;;;;;;2.63;1.10;;;13.30;99.90;;;;;;5072920;28;20225;-57
2023/11/09 09:42:46;;;;;;;24.57;20.00;;;13.40;99.90;;;;;;5072553;28;20208;-55
2023/11/09 09:45:15;;;;;;;2.60;1.90;;;13.30;99.90;;;;;;5072744;28;20211;-56
2023/11/09 09:47:44;;;;;;;2.80;1.43;;;13.30;99.90;;;;;;5072964;28;20229;-56
2023/11/09 09:50:14;;;;;;;4.50;2.53;;;13.20;99.90;;;;;;5072835;28;20328;-56
2023/11/09 09:52:46;;;;;;;1.63;1.20;;;13.10;99.90;;;;;;5072481;28;20268;-56
2023/11/09 09:55:18;;;;;;;2.10;1.30;;;13.20;99.90;;;;;;5072731;28;20200;-57
2023/11/09 09:57:45;;;;;;;2.23;1.43;;;13.20;99.90;;;;;;5072819;28;20208;-57
2023/11/09 10:00:23;;;;;;;1.57;1.27;;;13.10;99.90;;;;;;5072360;28;20713;-56
2023/11/09 10:02:50;;;;;;;4.33;1.27;;;13.10;99.90;;;;;;5072224;28;20681;-56
2023/11/09 10:05:19;;;;;;;4.97;2.10;;;13.00;99.90;;;;;;5072643;28;20205;-56
2023/11/09 10:08:03;;;;;;;1.30;1.17;;;13.00;99.90;;;;;;5072346;28;20249;-55
2023/11/09 10:10:33;;;;;;;3.43;1.50;;;13.00;99.90;;;;;;5072168;28;20268;-56
2023/11/09 10:13:01;;;;;;;2.70;1.60;;;13.00;99.90;;;;;;5056820;28;20289;-58
2023/11/09 10:15:29;;;;;;;2.93;2.27;;;13.20;99.90;;;;;;5064112;28;20235;-60
2023/11/09 10:17:56;;;;;;;3.30;1.50;;;13.30;99.90;;;;;;5070880;28;20589;-60
2023/11/09 10:20:25;;;;;;;3.00;1.40;;;13.60;99.90;;;;;;5071848;28;20323;-60
2023/11/09 10:22:53;;;;;;;1.30;0.93;;;13.70;99.90;;;;;;5071552;28;20255;-59
2023/11/09 10:25:26;;;;;;;2.00;1.17;;;13.80;99.90;;;;;;5072156;28;20203;-59
2023/11/09 10:27:56;;;;;;;1.60;1.20;;;13.90;99.90;;;;;;5072039;28;20595;-60
2023/11/09 10:30:25;;;;;;;1.43;1.10;;;14.10;99.90;;;;;;5067813;28;20699;-59
2023/11/09 10:33:01;;;;;;;1.70;1.20;;;14.10;99.90;;;;;;5070976;28;20254;-59
2023/11/09 10:35:29;;;;;;;1.40;1.00;;;14.10;99.90;;;;;;5071688;28;20659;-60
2023/11/09 10:37:57;;;;;;;10.33;8.73;;;14.10;99.90;;;;;;5071838;28;20197;-59
2023/11/09 10:40:27;;;;;;;2.33;1.23;;;14.10;99.90;;;;;;5071355;28;20714;-60
2023/11/09 10:42:55;;;;;;;3.90;1.27;;;14.20;99.90;;;;;;5062014;28;20228;-60
2023/11/09 10:45:25;;;;;;;1.63;1.27;;;14.20;99.90;;;;;;5046905;28;20220;-60
2023/11/09 10:47:55;;;;;;;5.30;1.20;;;14.20;99.90;;;;;;5051247;28;20675;-60
2023/11/09 10:50:24;;;;;;;3.87;1.00;;;14.20;99.90;;;;;;5053332;28;20225;-59
2023/11/09 10:52:52;;;;;;;1.47;1.00;;;14.30;99.90;;;;;;5051139;28;20245;-60
2023/11/09 10:55:21;;;;;;;1.20;0.93;;;14.40;99.90;;;;;;5050837;28;20736;-60
2023/11/09 10:57:48;;;;;;;11.50;9.70;;;14.40;99.90;;;;;;5051103;28;20217;-61
2023/11/09 11:00:31;;;;;;;2.30;1.13;;;14.40;99.90;;;;;;5051100;28;20225;-60
2023/11/09 11:03:08;;;;;;;3.67;1.00;;;14.60;99.90;;;;;;5049001;28;20615;-59
2023/11/09 11:05:40;;;;;;;2.67;1.10;;;14.70;99.90;;;;;;5050992;28;20590;-58
2023/11/09 11:08:15;;;;;;;1.13;0.80;;;14.80;99.90;;;;;;5050722;28;20216;-60
2023/11/09 11:10:46;;;;;;;2.43;1.03;;;15.00;99.90;;;;;;5050819;28;20240;-58
2023/11/09 11:13:17;;;;;;;1.97;1.03;;;15.00;99.90;;;;;;5051004;28;20206;-60
2023/11/09 11:16:03;;;;;;;0.80;0.70;;;15.00;99.90;;;;;;5050999;28;20407;-57
2023/11/09 11:18:47;;;;;;;1.30;0.90;;;14.80;99.90;;;;;;5050298;28;20612;-59
2023/11/09 11:21:31;;;;;;;1.30;0.80;;;14.80;99.90;;;;;;5050441;28;20300;-57
2023/11/09 11:24:38;;;;;;;3.17;1.67;;;14.90;99.90;;;;;;5050307;28;20235;-58
2023/11/09 11:27:10;;;;;;;2.63;1.52;;;15.00;99.90;;;;;;5043018;28;20255;-55
2023/11/09 11:29:38;;;;;;;5.00;3.67;;;15.10;99.90;;;;;;5050080;28;20317;-55
2023/11/09 11:32:08;;;;;;;1.60;0.90;;;15.00;99.90;;;;;;5050394;28;20233;-55
2023/11/09 11:34:46;;;;;;;0.70;0.63;;;14.90;99.90;;;;;;5050157;28;20258;-59
2023/11/09 11:37:16;;;;;;;1.43;0.60;;;14.90;99.90;;;;;;5050461;28;20225;-55
2023/11/09 11:39:44;;;;;;;1.90;1.07;;;14.90;99.90;;;;;;5049803;28;20234;-56
2023/11/09 11:42:19;;;;;;;2.13;0.80;;;14.90;99.90;;;;;;5050580;28;20206;-56
2023/11/09 11:44:53;;;;;;;3.60;0.70;;;14.90;99.90;;;;;;5049727;28;20634;-59
2023/11/09 11:47:21;;;;;;;1.27;0.80;;;14.80;99.90;;;;;;5050537;28;20210;-58
2023/11/09 11:49:49;;;;;;;3.47;2.70;;;14.80;99.90;;;;;;5050196;28;20312;-58
2023/11/09 11:52:19;;;;;;;2.40;1.90;;;14.80;99.90;;;;;;5050102;28;20300;-58
2023/11/09 11:54:47;;;;;;;1.63;1.30;;;15.00;99.90;;;;;;5058449;28;20636;-58
2023/11/09 11:57:14;;;;;;;1.20;0.90;;;15.20;99.90;;;;;;5050032;28;20222;-58
2023/11/09 11:59:41;;;;;;;1.20;0.70;;;15.40;99.90;;;;;;5049985;28;20233;-59
2023/11/09 12:02:12;;;;;;;0.93;0.70;;;15.60;99.90;;;;;;5050350;28;20214;-58
2023/11/09 12:04:45;;;;;;;2.20;0.77;;;15.70;99.90;;;;;;5058193;28;20236;-58
2023/11/09 12:07:12;;;;;;;0.80;0.50;;;15.70;99.90;;;;;;5070426;28;20208;-56
2023/11/09 12:09:39;;;;;;;1.10;0.70;;;15.70;99.90;;;;;;5070352;28;20353;-56
2023/11/09 12:12:12;;;;;;;1.40;1.13;;;15.60;99.90;;;;;;5070597;28;20212;-54
2023/11/09 12:14:39;;;;;;;1.23;0.67;;;15.50;99.90;;;;;;5070001;28;20205;-55
2023/11/09 12:17:06;;;;;;;1.40;0.60;;;15.40;99.90;;;;;;5070638;28;20258;-56
2023/11/09 12:19:33;;;;;;;3.67;0.70;;;15.30;99.90;;;;;;5070297;28;20274;-56
2023/11/09 12:22:00;;;;;;;0.80;0.50;;;15.30;99.90;;;;;;5070272;28;20232;-57
2023/11/09 12:24:28;;;;;;;2.03;0.55;;;15.40;99.90;;;;;;5070621;28;20197;-56
2023/11/09 12:27:06;;;;;;;2.75;0.70;;;15.50;99.90;;;;;;5070255;28;20224;-56
2023/11/09 12:29:36;;;;;;;0.60;0.60;;;15.50;99.90;;;;;;5070202;28;20248;-56
2023/11/09 12:32:03;;;;;;;1.23;0.55;;;15.50;99.90;;;;;;5054439;28;20205;-57
2023/11/09 12:34:35;;;;;;;2.25;0.80;;;15.50;99.90;;;;;;5070505;28;20205;-55
2023/11/09 12:37:02;;;;;;;0.60;0.50;;;15.50;99.90;;;;;;5053760;28;20590;-55
2023/11/09 12:39:31;;;;;;;5.10;0.93;;;15.50;99.90;;;;;;5070115;28;20228;-56
2023/11/09 12:41:58;;;;;;;2.45;0.63;;;15.40;99.90;;;;;;5074248;28;20200;-56
2023/11/09 12:44:29;;;;;;;0.83;0.53;;;15.50;99.90;;;;;;5074053;28;20296;-56
2023/11/09 12:46:59;;;;;;;1.50;0.70;;;15.50;99.90;;;;;;5074446;28;20216;-55
2023/11/09 12:49:28;;;;;;;0.60;0.53;;;15.60;99.90;;;;;;5074283;28;20875;-55
2023/11/09 12:51:55;;;;;;;1.35;0.50;;;15.60;99.90;;;;;;5074140;28;20209;-56
2023/11/09 12:54:23;;;;;;;3.03;1.00;;;15.70;99.90;;;;;;5073973;28;20205;-57
2023/11/09 12:56:55;;;;;;;4.18;0.60;;;15.80;99.90;;;;;;5073806;28;20233;-55
2023/11/09 12:59:25;;;;;;;5.90;1.10;;;15.90;99.90;;;;;;5073817;28;20304;-55
2023/11/09 13:01:55;;;;;;;1.17;0.80;;;15.90;99.90;;;;;;5073721;28;20207;-55
2023/11/09 13:04:27;;;;;;;2.03;1.00;;;16.00;99.90;;;;;;5073597;28;20201;-55
2023/11/09 13:06:54;;;;;;;1.50;0.50;;;15.80;99.90;;;;;;5073710;28;20212;-58